sensor_id;sensor_type;location;lat;lon;timestamp;pressure;altitude;pressure_sealevel;temperature;humidity
35655;BME280;21773;50.010;19.972;2022-09-09T00:01:37;98386.16;;;25.23;56.53
35655;BME280;21773;50.010;19.972;2022-09-09T00:04:54;98385.34;;;25.23;56.93
35655;BME280;21773;50.010;19.972;2022-09-09T00:08:02;98382.94;;;25.21;56.55
35655;BME280;21773;50.010;19.972;2022-09-09T00:11:12;98382.78;;;25.18;56.79
35655;BME280;21773;50.010;19.972;2022-09-09T00:14:23;98385.53;;;25.18;56.97
35655;BME280;21773;50.010;19.972;2022-09-09T00:17:35;98381.81;;;25.14;57.16
35655;BME280;21773;50.010;19.972;2022-09-09T00:20:46;98382.63;;;25.14;56.67
35655;BME280;21773;50.010;19.972;2022-09-09T00:23:54;98374.66;;;25.13;57.06
35655;BME280;21773;50.010;19.972;2022-09-09T00:27:03;98382.13;;;25.12;57.03
35655;BME280;21773;50.010;19.972;2022-09-09T00:30:15;98376.19;;;25.01;57.13
35655;BME280;21773;50.010;19.972;2022-09-09T00:33:23;98389.63;;;25.12;56.99
35655;BME280;21773;50.010;19.972;2022-09-09T00:36:27;98383.75;;;25.13;56.72
35655;BME280;21773;50.010;19.972;2022-09-09T00:39:36;98387.34;;;25.14;56.62
35655;BME280;21773;50.010;19.972;2022-09-09T00:42:43;98385.38;;;25.14;57.01
35655;BME280;21773;50.010;19.972;2022-09-09T00:49:28;98396.75;;;25.13;56.89
35655;BME280;21773;50.010;19.972;2022-09-09T00:52:41;98361.59;;;24.92;56.69
35655;BME280;21773;50.010;19.972;2022-09-09T00:55:53;98399.03;;;25.11;56.87
35655;BME280;21773;50.010;19.972;2022-09-09T00:59:12;98400.97;;;25.10;56.77
35655;BME280;21773;50.010;19.972;2022-09-09T01:02:27;98395.47;;;25.10;56.84
35655;BME280;21773;50.010;19.972;2022-09-09T01:05:36;98411.88;;;25.07;56.50
35655;BME280;21773;50.010;19.972;2022-09-09T01:09:05;98404.06;;;25.09;56.52
35655;BME280;21773;50.010;19.972;2022-09-09T01:12:16;98409.09;;;25.07;56.56
35655;BME280;21773;50.010;19.972;2022-09-09T01:15:29;98408.28;;;25.06;56.56
35655;BME280;21773;50.010;19.972;2022-09-09T01:18:37;98409.44;;;25.05;56.46
35655;BME280;21773;50.010;19.972;2022-09-09T01:21:48;98412.50;;;25.03;56.34
35655;BME280;21773;50.010;19.972;2022-09-09T01:28:36;98415.25;;;25.03;56.25
35655;BME280;21773;50.010;19.972;2022-09-09T01:31:53;98431.81;;;25.03;55.98
35655;BME280;21773;50.010;19.972;2022-09-09T01:34:58;98440.75;;;25.00;55.98
35655;BME280;21773;50.010;19.972;2022-09-09T01:38:01;98436.38;;;24.99;55.75
35655;BME280;21773;50.010;19.972;2022-09-09T01:41:05;98442.69;;;25.00;56.13
35655;BME280;21773;50.010;19.972;2022-09-09T01:44:25;98446.59;;;24.99;55.93
35655;BME280;21773;50.010;19.972;2022-09-09T01:47:30;98448.22;;;25.00;55.81
35655;BME280;21773;50.010;19.972;2022-09-09T01:50:58;98454.03;;;24.98;55.67
35655;BME280;21773;50.010;19.972;2022-09-09T01:54:02;98434.06;;;24.84;55.69
35655;BME280;21773;50.010;19.972;2022-09-09T01:57:14;98448.88;;;24.97;55.88
35655;BME280;21773;50.010;19.972;2022-09-09T02:00:22;98453.06;;;24.94;55.69
35655;BME280;21773;50.010;19.972;2022-09-09T02:03:32;98418.22;;;24.73;55.59
35655;BME280;21773;50.010;19.972;2022-09-09T02:06:54;98426.78;;;24.80;55.41
35655;BME280;21773;50.010;19.972;2022-09-09T02:10:09;98450.94;;;24.83;55.46
35655;BME280;21773;50.010;19.972;2022-09-09T02:13:20;98455.31;;;24.84;55.39
35655;BME280;21773;50.010;19.972;2022-09-09T02:16:30;98460.84;;;24.84;55.24
35655;BME280;21773;50.010;19.972;2022-09-09T02:19:38;98456.97;;;24.76;55.00
35655;BME280;21773;50.010;19.972;2022-09-09T02:22:56;98468.13;;;24.80;55.02
35655;BME280;21773;50.010;19.972;2022-09-09T02:26:01;98471.56;;;24.77;54.96
35655;BME280;21773;50.010;19.972;2022-09-09T02:29:09;98470.75;;;24.76;55.22
35655;BME280;21773;50.010;19.972;2022-09-09T02:32:22;98484.38;;;24.73;55.38
35655;BME280;21773;50.010;19.972;2022-09-09T02:35:30;98483.88;;;24.71;55.61
35655;BME280;21773;50.010;19.972;2022-09-09T02:38:38;98486.94;;;24.69;55.50
35655;BME280;21773;50.010;19.972;2022-09-09T02:41:47;98495.56;;;24.68;55.60
35655;BME280;21773;50.010;19.972;2022-09-09T02:44:50;98496.69;;;24.67;55.49
35655;BME280;21773;50.010;19.972;2022-09-09T02:48:00;98502.19;;;24.67;55.54
35655;BME280;21773;50.010;19.972;2022-09-09T02:51:10;98506.41;;;24.64;55.53
35655;BME280;21773;50.010;19.972;2022-09-09T02:54:26;98509.16;;;24.64;55.67
35655;BME280;21773;50.010;19.972;2022-09-09T02:57:36;98515.31;;;24.61;55.80
35655;BME280;21773;50.010;19.972;2022-09-09T03:00:41;98511.25;;;24.58;55.70
35655;BME280;21773;50.010;19.972;2022-09-09T03:03:46;98507.22;;;24.56;55.71
35655;BME280;21773;50.010;19.972;2022-09-09T03:06:51;98509.00;;;24.52;55.47
35655;BME280;21773;50.010;19.972;2022-09-09T03:09:55;98519.50;;;24.50;55.34
35655;BME280;21773;50.010;19.972;2022-09-09T03:13:01;98493.38;;;24.39;55.48
35655;BME280;21773;50.010;19.972;2022-09-09T03:16:10;98509.16;;;24.47;55.45
35655;BME280;21773;50.010;19.972;2022-09-09T03:19:20;98504.75;;;24.46;55.13
35655;BME280;21773;50.010;19.972;2022-09-09T03:22:25;98507.16;;;24.39;55.29
35655;BME280;21773;50.010;19.972;2022-09-09T03:25:30;98501.34;;;24.40;55.30
35655;BME280;21773;50.010;19.972;2022-09-09T03:28:36;98518.19;;;24.39;55.25
35655;BME280;21773;50.010;19.972;2022-09-09T03:31:40;98508.94;;;24.35;55.27
35655;BME280;21773;50.010;19.972;2022-09-09T03:34:45;98510.88;;;24.34;55.45
35655;BME280;21773;50.010;19.972;2022-09-09T03:37:51;98508.47;;;24.33;55.35
35655;BME280;21773;50.010;19.972;2022-09-09T03:40:56;98517.84;;;24.32;55.22
35655;BME280;21773;50.010;19.972;2022-09-09T03:44:00;98514.28;;;24.31;55.26
35655;BME280;21773;50.010;19.972;2022-09-09T03:47:10;98517.03;;;24.31;55.09
35655;BME280;21773;50.010;19.972;2022-09-09T03:50:15;98518.16;;;24.30;55.05
35655;BME280;21773;50.010;19.972;2022-09-09T03:53:23;98530.31;;;24.29;55.03
35655;BME280;21773;50.010;19.972;2022-09-09T03:56:27;98528.72;;;24.28;55.12
35655;BME280;21773;50.010;19.972;2022-09-09T03:59:31;98523.22;;;24.28;55.05
35655;BME280;21773;50.010;19.972;2022-09-09T04:02:34;98529.53;;;24.29;54.86
35655;BME280;21773;50.010;19.972;2022-09-09T04:05:40;98534.22;;;24.28;54.73
35655;BME280;21773;50.010;19.972;2022-09-09T04:08:45;98536.16;;;24.28;54.74
35655;BME280;21773;50.010;19.972;2022-09-09T04:11:50;98529.34;;;24.25;54.70
35655;BME280;21773;50.010;19.972;2022-09-09T04:14:54;98533.22;;;24.24;54.66
35655;BME280;21773;50.010;19.972;2022-09-09T04:17:59;98524.63;;;24.17;54.67
35655;BME280;21773;50.010;19.972;2022-09-09T04:21:05;98541.81;;;24.23;54.43
35655;BME280;21773;50.010;19.972;2022-09-09T04:24:09;98530.81;;;24.23;54.71
35655;BME280;21773;50.010;19.972;2022-09-09T04:27:13;98535.50;;;24.22;54.48
35655;BME280;21773;50.010;19.972;2022-09-09T04:30:16;98531.13;;;24.21;54.43
35655;BME280;21773;50.010;19.972;2022-09-09T04:33:20;98542.13;;;24.21;54.49
35655;BME280;21773;50.010;19.972;2022-09-09T04:36:26;98532.75;;;24.22;54.23
35655;BME280;21773;50.010;19.972;2022-09-09T04:39:34;98535.19;;;24.24;54.34
35655;BME280;21773;50.010;19.972;2022-09-09T04:42:38;98536.78;;;24.25;54.37
35655;BME280;21773;50.010;19.972;2022-09-09T04:45:49;98538.09;;;24.27;54.28
35655;BME280;21773;50.010;19.972;2022-09-09T04:48:57;98534.69;;;24.30;54.18
35655;BME280;21773;50.010;19.972;2022-09-09T04:52:06;98540.38;;;24.34;54.07
35655;BME280;21773;50.010;19.972;2022-09-09T04:55:11;98549.66;;;24.38;54.21
35655;BME280;21773;50.010;19.972;2022-09-09T04:58:19;98539.91;;;24.40;54.17
35655;BME280;21773;50.010;19.972;2022-09-09T05:01:24;98551.09;;;24.44;54.16
35655;BME280;21773;50.010;19.972;2022-09-09T05:04:34;98552.41;;;24.46;54.43
35655;BME280;21773;50.010;19.972;2022-09-09T05:07:39;98561.97;;;24.49;54.51
35655;BME280;21773;50.010;19.972;2022-09-09T05:10:43;98559.72;;;24.51;54.27
35655;BME280;21773;50.010;19.972;2022-09-09T05:13:47;98561.81;;;24.54;54.38
35655;BME280;21773;50.010;19.972;2022-09-09T05:16:52;98556.81;;;24.56;54.46
35655;BME280;21773;50.010;19.972;2022-09-09T05:19:57;98559.72;;;24.59;54.14
35655;BME280;21773;50.010;19.972;2022-09-09T05:23:02;98559.09;;;24.63;53.91
35655;BME280;21773;50.010;19.972;2022-09-09T05:26:12;98555.53;;;24.62;54.06
35655;BME280;21773;50.010;19.972;2022-09-09T05:29:20;98556.00;;;24.64;53.56
35655;BME280;21773;50.010;19.972;2022-09-09T05:32:23;98562.50;;;24.68;53.56
35655;BME280;21773;50.010;19.972;2022-09-09T05:35:27;98563.81;;;24.71;53.36
35655;BME280;21773;50.010;19.972;2022-09-09T05:38:33;98558.16;;;24.76;53.53
35655;BME280;21773;50.010;19.972;2022-09-09T05:41:38;98561.88;;;24.80;53.61
35655;BME280;21773;50.010;19.972;2022-09-09T05:44:43;98558.03;;;24.89;53.60
35655;BME280;21773;50.010;19.972;2022-09-09T05:47:51;98562.56;;;24.94;53.52
35655;BME280;21773;50.010;19.972;2022-09-09T05:50:56;98562.09;;;25.09;53.40
35655;BME280;21773;50.010;19.972;2022-09-09T05:54:01;98563.56;;;25.24;53.20
35655;BME280;21773;50.010;19.972;2022-09-09T05:57:08;98571.81;;;25.32;53.08
35655;BME280;21773;50.010;19.972;2022-09-09T06:00:13;98575.69;;;25.49;52.25
35655;BME280;21773;50.010;19.972;2022-09-09T06:03:20;98587.56;;;25.66;51.83
35655;BME280;21773;50.010;19.972;2022-09-09T06:06:27;98583.47;;;25.81;51.68
35655;BME280;21773;50.010;19.972;2022-09-09T06:09:35;98597.25;;;25.98;50.87
35655;BME280;21773;50.010;19.972;2022-09-09T06:12:41;98598.50;;;26.09;50.18
35655;BME280;21773;50.010;19.972;2022-09-09T06:15:49;98601.91;;;26.23;49.53
35655;BME280;21773;50.010;19.972;2022-09-09T06:18:55;98608.81;;;26.38;49.18
35655;BME280;21773;50.010;19.972;2022-09-09T06:22:01;98605.50;;;26.53;49.16
35655;BME280;21773;50.010;19.972;2022-09-09T06:25:09;98607.03;;;26.71;48.71
35655;BME280;21773;50.010;19.972;2022-09-09T06:28:13;98604.97;;;26.89;48.34
35655;BME280;21773;50.010;19.972;2022-09-09T06:31:18;98597.50;;;27.10;48.06
35655;BME280;21773;50.010;19.972;2022-09-09T06:34:29;98593.13;;;27.30;47.68
35655;BME280;21773;50.010;19.972;2022-09-09T06:37:33;98599.00;;;27.49;46.90
35655;BME280;21773;50.010;19.972;2022-09-09T06:40:40;98595.50;;;27.61;46.06
35655;BME280;21773;50.010;19.972;2022-09-09T06:43:44;98580.47;;;27.62;45.56
35655;BME280;21773;50.010;19.972;2022-09-09T06:46:47;98597.03;;;27.83;44.73
35655;BME280;21773;50.010;19.972;2022-09-09T06:49:52;98600.41;;;27.88;44.53
35655;BME280;21773;50.010;19.972;2022-09-09T06:52:55;98598.69;;;27.96;44.27
35655;BME280;21773;50.010;19.972;2022-09-09T06:56:01;98587.81;;;27.91;43.65
35655;BME280;21773;50.010;19.972;2022-09-09T06:59:06;98598.72;;;28.08;44.15
35655;BME280;21773;50.010;19.972;2022-09-09T07:02:11;98581.63;;;28.06;43.47
35655;BME280;21773;50.010;19.972;2022-09-09T07:05:14;98589.28;;;28.21;43.75
35655;BME280;21773;50.010;19.972;2022-09-09T07:08:20;98591.66;;;28.43;43.11
35655;BME280;21773;50.010;19.972;2022-09-09T07:11:26;98595.22;;;28.56;42.72
35655;BME280;21773;50.010;19.972;2022-09-09T07:14:31;98587.84;;;28.72;43.79
35655;BME280;21773;50.010;19.972;2022-09-09T07:17:38;98584.22;;;28.84;43.21
35655;BME280;21773;50.010;19.972;2022-09-09T07:20:42;98576.81;;;29.00;41.77
35655;BME280;21773;50.010;19.972;2022-09-09T07:23:45;98583.09;;;29.25;41.40
35655;BME280;21773;50.010;19.972;2022-09-09T07:26:50;98583.53;;;29.39;41.96
35655;BME280;21773;50.010;19.972;2022-09-09T07:29:54;98588.69;;;29.53;40.31
35655;BME280;21773;50.010;19.972;2022-09-09T07:32:59;98583.00;;;29.61;40.21
35655;BME280;21773;50.010;19.972;2022-09-09T07:36:07;98585.44;;;29.79;40.21
35655;BME280;21773;50.010;19.972;2022-09-09T07:39:14;98592.59;;;29.92;39.45
35655;BME280;21773;50.010;19.972;2022-09-09T07:42:25;98596.47;;;30.03;39.34
35655;BME280;21773;50.010;19.972;2022-09-09T07:45:28;98575.75;;;30.00;39.53
35655;BME280;21773;50.010;19.972;2022-09-09T07:48:32;98597.03;;;30.24;38.49
35655;BME280;21773;50.010;19.972;2022-09-09T07:51:38;98604.28;;;30.44;38.33
35655;BME280;21773;50.010;19.972;2022-09-09T07:54:43;98611.94;;;30.63;38.13
35655;BME280;21773;50.010;19.972;2022-09-09T07:57:49;98595.94;;;30.76;37.94
35655;BME280;21773;50.010;19.972;2022-09-09T08:00:53;98600.59;;;31.03;36.82
35655;BME280;21773;50.010;19.972;2022-09-09T08:03:59;98606.53;;;31.21;36.20
35655;BME280;21773;50.010;19.972;2022-09-09T08:07:04;98602.88;;;31.36;36.16
35655;BME280;21773;50.010;19.972;2022-09-09T08:10:14;98602.44;;;31.53;35.49
35655;BME280;21773;50.010;19.972;2022-09-09T08:13:21;98607.91;;;31.65;34.72
35655;BME280;21773;50.010;19.972;2022-09-09T08:16:29;98609.06;;;31.83;34.92
35655;BME280;21773;50.010;19.972;2022-09-09T08:19:34;98613.88;;;32.06;34.60
35655;BME280;21773;50.010;19.972;2022-09-09T08:22:44;98618.22;;;32.26;33.84
35655;BME280;21773;50.010;19.972;2022-09-09T08:25:47;98617.69;;;32.40;32.96
35655;BME280;21773;50.010;19.972;2022-09-09T08:28:55;98617.97;;;32.57;33.47
35655;BME280;21773;50.010;19.972;2022-09-09T08:32:01;98615.16;;;32.80;33.30
35655;BME280;21773;50.010;19.972;2022-09-09T08:35:06;98614.31;;;33.02;33.20
35655;BME280;21773;50.010;19.972;2022-09-09T08:38:10;98626.72;;;33.05;31.81
35655;BME280;21773;50.010;19.972;2022-09-09T08:41:34;98623.19;;;33.08;31.82
35655;BME280;21773;50.010;19.972;2022-09-09T08:44:52;98618.19;;;33.21;32.22
35655;BME280;21773;50.010;19.972;2022-09-09T08:48:18;98632.50;;;33.45;31.63
35655;BME280;21773;50.010;19.972;2022-09-09T08:51:27;98629.06;;;33.56;30.65
35655;BME280;21773;50.010;19.972;2022-09-09T08:54:34;98632.16;;;33.77;31.62
35655;BME280;21773;50.010;19.972;2022-09-09T08:57:57;98625.09;;;33.90;30.61
35655;BME280;21773;50.010;19.972;2022-09-09T09:01:24;98623.84;;;33.87;29.16
35655;BME280;21773;50.010;19.972;2022-09-09T09:04:48;98629.41;;;33.84;29.86
35655;BME280;21773;50.010;19.972;2022-09-09T09:08:03;98629.50;;;33.91;29.61
35655;BME280;21773;50.010;19.972;2022-09-09T09:11:12;98634.66;;;33.89;29.45
35655;BME280;21773;50.010;19.972;2022-09-09T09:14:19;98633.00;;;33.81;29.36
35655;BME280;21773;50.010;19.972;2022-09-09T09:17:35;98626.56;;;33.77;29.30
35655;BME280;21773;50.010;19.972;2022-09-09T09:20:50;98624.13;;;33.75;29.06
35655;BME280;21773;50.010;19.972;2022-09-09T09:23:57;98617.84;;;33.85;28.43
35655;BME280;21773;50.010;19.972;2022-09-09T09:27:12;98619.69;;;34.08;29.83
35655;BME280;21773;50.010;19.972;2022-09-09T09:30:22;98630.81;;;34.38;28.67
35655;BME280;21773;50.010;19.972;2022-09-09T09:33:47;98599.38;;;34.55;28.78
35655;BME280;21773;50.010;19.972;2022-09-09T09:36:56;98627.28;;;34.92;28.00
35655;BME280;21773;50.010;19.972;2022-09-09T09:40:10;98622.09;;;34.94;26.98
35655;BME280;21773;50.010;19.972;2022-09-09T09:43:19;98618.44;;;34.90;27.33
35655;BME280;21773;50.010;19.972;2022-09-09T09:46:24;98621.69;;;34.95;27.42
35655;BME280;21773;50.010;19.972;2022-09-09T09:49:36;98623.75;;;35.02;27.50
35655;BME280;21773;50.010;19.972;2022-09-09T09:52:41;98617.78;;;35.14;28.03
35655;BME280;21773;50.010;19.972;2022-09-09T09:55:52;98620.69;;;35.17;26.94
35655;BME280;21773;50.010;19.972;2022-09-09T09:58:57;98619.88;;;35.17;26.71
35655;BME280;21773;50.010;19.972;2022-09-09T10:02:16;98623.47;;;35.17;26.09
35655;BME280;21773;50.010;19.972;2022-09-09T10:05:26;98617.94;;;35.28;26.43
35655;BME280;21773;50.010;19.972;2022-09-09T10:08:45;98616.44;;;35.52;25.57
35655;BME280;21773;50.010;19.972;2022-09-09T10:11:55;98611.78;;;35.81;25.60
35655;BME280;21773;50.010;19.972;2022-09-09T10:15:06;98603.00;;;35.96;25.29
35655;BME280;21773;50.010;19.972;2022-09-09T10:18:30;98607.00;;;35.99;25.34
35655;BME280;21773;50.010;19.972;2022-09-09T10:22:02;98609.00;;;35.91;24.66
35655;BME280;21773;50.010;19.972;2022-09-09T10:25:22;98607.34;;;35.83;25.16
35655;BME280;21773;50.010;19.972;2022-09-09T10:28:41;98623.41;;;35.93;25.90
35655;BME280;21773;50.010;19.972;2022-09-09T10:31:55;98621.41;;;35.97;25.10
35655;BME280;21773;50.010;19.972;2022-09-09T10:35:09;98613.41;;;35.96;24.69
35655;BME280;21773;50.010;19.972;2022-09-09T10:38:16;98622.59;;;35.82;24.83
35655;BME280;21773;50.010;19.972;2022-09-09T10:41:32;98626.56;;;35.78;25.00
35655;BME280;21773;50.010;19.972;2022-09-09T10:45:02;98623.00;;;35.81;24.35
35655;BME280;21773;50.010;19.972;2022-09-09T10:48:23;98603.78;;;35.86;23.76
35655;BME280;21773;50.010;19.972;2022-09-09T10:51:39;98615.09;;;36.18;23.81
35655;BME280;21773;50.010;19.972;2022-09-09T10:54:54;98613.53;;;36.49;23.47
35655;BME280;21773;50.010;19.972;2022-09-09T10:58:03;98615.53;;;36.80;23.09
35655;BME280;21773;50.010;19.972;2022-09-09T11:01:14;98622.34;;;37.04;23.05
35655;BME280;21773;50.010;19.972;2022-09-09T11:04:22;98621.91;;;37.27;22.83
35655;BME280;21773;50.010;19.972;2022-09-09T11:07:32;98615.03;;;37.42;22.38
35655;BME280;21773;50.010;19.972;2022-09-09T11:10:42;98616.19;;;37.59;22.73
35655;BME280;21773;50.010;19.972;2022-09-09T11:13:53;98614.97;;;37.63;22.04
35655;BME280;21773;50.010;19.972;2022-09-09T11:17:02;98612.16;;;37.63;21.87
35655;BME280;21773;50.010;19.972;2022-09-09T11:20:11;98625.00;;;37.64;22.17
35655;BME280;21773;50.010;19.972;2022-09-09T11:23:18;98616.56;;;37.64;21.90
35655;BME280;21773;50.010;19.972;2022-09-09T11:26:30;98604.53;;;37.67;21.74
35655;BME280;21773;50.010;19.972;2022-09-09T11:33:27;98611.72;;;37.76;22.64
35655;BME280;21773;50.010;19.972;2022-09-09T11:36:53;98612.47;;;37.87;22.33
35655;BME280;21773;50.010;19.972;2022-09-09T11:40:15;98608.03;;;37.86;21.73
35655;BME280;21773;50.010;19.972;2022-09-09T11:43:24;98611.31;;;37.77;21.05
35655;BME280;21773;50.010;19.972;2022-09-09T11:46:34;98606.53;;;37.63;21.01
35655;BME280;21773;50.010;19.972;2022-09-09T11:49:41;98605.38;;;37.47;21.19
35655;BME280;21773;50.010;19.972;2022-09-09T11:52:46;98603.03;;;37.27;20.92
35655;BME280;21773;50.010;19.972;2022-09-09T11:56:04;98599.06;;;37.07;21.18
35655;BME280;21773;50.010;19.972;2022-09-09T11:59:20;98589.88;;;36.75;21.08
35655;BME280;21773;50.010;19.972;2022-09-09T12:02:26;98605.13;;;36.63;21.45
35655;BME280;21773;50.010;19.972;2022-09-09T12:05:39;98606.69;;;36.43;21.34
35655;BME280;21773;50.010;19.972;2022-09-09T12:08:46;98607.09;;;36.24;22.10
35655;BME280;21773;50.010;19.972;2022-09-09T12:11:52;98609.81;;;36.02;22.52
35655;BME280;21773;50.010;19.972;2022-09-09T12:15:03;98599.75;;;35.80;23.14
35655;BME280;21773;50.010;19.972;2022-09-09T12:18:24;98604.03;;;35.56;22.87
35655;BME280;21773;50.010;19.972;2022-09-09T12:21:34;98599.53;;;35.34;24.01
35655;BME280;21773;50.010;19.972;2022-09-09T12:24:44;98601.06;;;35.17;23.79
35655;BME280;21773;50.010;19.972;2022-09-09T12:28:01;98596.91;;;35.01;23.51
35655;BME280;21773;50.010;19.972;2022-09-09T12:31:11;98593.28;;;34.97;23.72
35655;BME280;21773;50.010;19.972;2022-09-09T12:34:30;98604.50;;;34.97;23.20
35655;BME280;21773;50.010;19.972;2022-09-09T12:37:37;98601.25;;;34.91;23.40
35655;BME280;21773;50.010;19.972;2022-09-09T12:40:41;98594.03;;;34.87;24.39
35655;BME280;21773;50.010;19.972;2022-09-09T12:43:44;98597.56;;;34.80;23.61
35655;BME280;21773;50.010;19.972;2022-09-09T12:46:49;98597.91;;;34.68;24.24
35655;BME280;21773;50.010;19.972;2022-09-09T12:49:54;98566.44;;;34.38;24.42
35655;BME280;21773;50.010;19.972;2022-09-09T12:53:00;98595.69;;;34.47;24.75
35655;BME280;21773;50.010;19.972;2022-09-09T12:56:07;98603.63;;;34.38;24.48
35655;BME280;21773;50.010;19.972;2022-09-09T12:59:22;98599.19;;;34.33;24.24
35655;BME280;21773;50.010;19.972;2022-09-09T13:02:27;98587.88;;;34.19;24.83
35655;BME280;21773;50.010;19.972;2022-09-09T13:05:35;98587.19;;;34.36;24.33
35655;BME280;21773;50.010;19.972;2022-09-09T13:08:39;98580.44;;;34.41;24.13
35655;BME280;21773;50.010;19.972;2022-09-09T13:11:44;98572.91;;;34.45;24.66
35655;BME280;21773;50.010;19.972;2022-09-09T13:14:52;98562.91;;;34.48;23.43
35655;BME280;21773;50.010;19.972;2022-09-09T13:18:00;98567.72;;;34.51;22.97
35655;BME280;21773;50.010;19.972;2022-09-09T13:21:05;98567.69;;;34.47;22.93
35655;BME280;21773;50.010;19.972;2022-09-09T13:24:26;98566.84;;;34.40;23.44
35655;BME280;21773;50.010;19.972;2022-09-09T13:27:33;98563.16;;;34.28;23.10
35655;BME280;21773;50.010;19.972;2022-09-09T13:30:37;98564.88;;;34.40;23.06
35655;BME280;21773;50.010;19.972;2022-09-09T13:33:44;98567.25;;;34.42;22.97
35655;BME280;21773;50.010;19.972;2022-09-09T13:36:48;98560.47;;;34.43;23.19
35655;BME280;21773;50.010;19.972;2022-09-09T13:39:52;98568.97;;;34.53;23.15
35655;BME280;21773;50.010;19.972;2022-09-09T13:42:57;98543.63;;;34.35;22.74
35655;BME280;21773;50.010;19.972;2022-09-09T13:46:03;98557.25;;;34.41;22.98
35655;BME280;21773;50.010;19.972;2022-09-09T13:49:21;98557.56;;;34.28;22.57
35655;BME280;21773;50.010;19.972;2022-09-09T13:52:27;98550.69;;;34.19;22.87
35655;BME280;21773;50.010;19.972;2022-09-09T13:55:33;98556.16;;;34.08;22.76
35655;BME280;21773;50.010;19.972;2022-09-09T13:58:36;98550.84;;;33.96;22.86
35655;BME280;21773;50.010;19.972;2022-09-09T14:01:40;98555.91;;;33.83;22.70
35655;BME280;21773;50.010;19.972;2022-09-09T14:04:45;98551.78;;;33.70;22.71
35655;BME280;21773;50.010;19.972;2022-09-09T14:07:50;98554.84;;;33.62;22.46
35655;BME280;21773;50.010;19.972;2022-09-09T14:10:54;98546.38;;;33.55;22.61
35655;BME280;21773;50.010;19.972;2022-09-09T14:13:59;98544.69;;;33.46;22.56
35655;BME280;21773;50.010;19.972;2022-09-09T14:17:03;98551.75;;;33.37;22.50
35655;BME280;21773;50.010;19.972;2022-09-09T14:20:10;98546.88;;;33.30;23.07
35655;BME280;21773;50.010;19.972;2022-09-09T14:23:17;98538.34;;;33.20;22.94
35655;BME280;21773;50.010;19.972;2022-09-09T14:26:21;98539.84;;;33.14;23.73
35655;BME280;21773;50.010;19.972;2022-09-09T14:29:25;98539.41;;;33.08;24.09
35655;BME280;21773;50.010;19.972;2022-09-09T14:32:28;98539.72;;;33.03;23.97
35655;BME280;21773;50.010;19.972;2022-09-09T14:35:34;98533.69;;;33.01;24.17
35655;BME280;21773;50.010;19.972;2022-09-09T14:38:38;98526.56;;;33.03;25.67
35655;BME280;21773;50.010;19.972;2022-09-09T14:41:43;98523.78;;;33.03;25.19
35655;BME280;21773;50.010;19.972;2022-09-09T14:44:47;98514.19;;;33.04;25.52
35655;BME280;21773;50.010;19.972;2022-09-09T14:47:51;98519.41;;;33.06;26.11
35655;BME280;21773;50.010;19.972;2022-09-09T14:50:55;98522.69;;;33.12;26.19
35655;BME280;21773;50.010;19.972;2022-09-09T14:53:59;98518.69;;;33.13;24.63
35655;BME280;21773;50.010;19.972;2022-09-09T14:57:03;98514.28;;;33.12;25.13
35655;BME280;21773;50.010;19.972;2022-09-09T15:00:09;98511.03;;;33.06;25.11
35655;BME280;21773;50.010;19.972;2022-09-09T15:03:13;98514.97;;;33.01;25.75
35655;BME280;21773;50.010;19.972;2022-09-09T15:06:18;98523.22;;;32.94;25.37
35655;BME280;21773;50.010;19.972;2022-09-09T15:09:22;98517.59;;;32.91;25.26
35655;BME280;21773;50.010;19.972;2022-09-09T15:12:25;98515.50;;;32.84;24.51
35655;BME280;21773;50.010;19.972;2022-09-09T15:15:28;98510.66;;;32.78;24.65
35655;BME280;21773;50.010;19.972;2022-09-09T15:18:32;98512.97;;;32.72;24.98
35655;BME280;21773;50.010;19.972;2022-09-09T15:21:37;98517.25;;;32.66;24.94
35655;BME280;21773;50.010;19.972;2022-09-09T15:24:41;98509.56;;;32.59;25.49
35655;BME280;21773;50.010;19.972;2022-09-09T15:27:44;98505.09;;;32.55;25.89
35655;BME280;21773;50.010;19.972;2022-09-09T15:30:48;98510.63;;;32.51;25.90
35655;BME280;21773;50.010;19.972;2022-09-09T15:33:54;98510.94;;;32.46;25.89
35655;BME280;21773;50.010;19.972;2022-09-09T15:37:04;98515.22;;;32.40;26.35
35655;BME280;21773;50.010;19.972;2022-09-09T15:40:08;98513.16;;;32.34;26.63
35655;BME280;21773;50.010;19.972;2022-09-09T15:43:12;98520.22;;;32.28;27.78
35655;BME280;21773;50.010;19.972;2022-09-09T15:46:29;98518.94;;;32.21;28.01
35655;BME280;21773;50.010;19.972;2022-09-09T15:49:34;98522.78;;;32.13;27.64
35655;BME280;21773;50.010;19.972;2022-09-09T15:52:38;98518.28;;;32.09;28.47
35655;BME280;21773;50.010;19.972;2022-09-09T15:55:42;98512.22;;;32.03;28.21
35655;BME280;21773;50.010;19.972;2022-09-09T15:58:45;98516.56;;;32.01;28.67
35655;BME280;21773;50.010;19.972;2022-09-09T16:01:49;98526.84;;;31.97;28.60
35655;BME280;21773;50.010;19.972;2022-09-09T16:04:53;98524.34;;;31.92;28.15
35655;BME280;21773;50.010;19.972;2022-09-09T16:07:58;98510.16;;;31.77;28.89
35655;BME280;21773;50.010;19.972;2022-09-09T16:11:06;98506.75;;;31.65;28.64
35655;BME280;21773;50.010;19.972;2022-09-09T16:14:13;98518.66;;;31.62;28.95
35655;BME280;21773;50.010;19.972;2022-09-09T16:17:18;98518.47;;;31.55;29.53
35655;BME280;21773;50.010;19.972;2022-09-09T16:20:22;98527.44;;;31.45;29.67
35655;BME280;21773;50.010;19.972;2022-09-09T16:23:27;98526.34;;;31.30;29.84
35655;BME280;21773;50.010;19.972;2022-09-09T16:26:32;98532.44;;;31.16;29.81
35655;BME280;21773;50.010;19.972;2022-09-09T16:29:36;98536.81;;;30.98;29.91
35655;BME280;21773;50.010;19.972;2022-09-09T16:32:39;98533.31;;;30.85;30.30
35655;BME280;21773;50.010;19.972;2022-09-09T16:35:43;98530.56;;;30.70;30.32